Philadelphia, PA

6:23 AM EST on January 30, 2015 (GMT -0500)
NOS_PORTS Tacony-Palmyra Bridge, NJ | Change Station
CLOSE
Current Station
Personal Weather Station
Location: Philadelphia, PA
Elevation: 0 ft
Nearby Weather Stations
Active Advisory: Wind Chill Advisory

Elev 0 ft 40.01 °N, 75.04 °W | Updated 53 minutes ago

Overcast
Overcast
34 °F
Feels Like 34 °F
N
Wind Variable Wind from North
Gusts 0.0 mph

Today
High -- | Low -- °F
--% Chance of Precip.
Yesterday
High -- | Low -- °F
Precip. -- in
7:10 AM 5:16 PM
Waxing Gibbous, 82% visible
Pressure 29.88 in
Visibility 10.0 miles
Clouds Overcast 5000 ft
Windchill 34 °F
Dew Point Not available.
Humidity Not available.
Rainfall -999.00 in
Snow Depth Not available.
UV 0 out of 12
Pollen .10 out of 12
Air Quality Not available.
Flu Activity Not available.
METAR KPNE 301054Z 29008KT 10SM OVC050 01/M05 A2988 RMK AO2 SLP118 T00111050

More Conditions Fewer Conditions

Pressure 29.88 in
Visibility 10.0 miles
Clouds Overcast 5000 ft
Windchill 34 °F
Dew Point Not available.
Humidity Not available.
Rainfall -999.00 in
Snow Depth Not available.
UV 0 out of 12
Pollen .10 out of 12
Air Quality Not available.
Flu Activity Not available.
METAR KPNE 301054Z 29008KT 10SM OVC050 01/M05 A2988 RMK AO2 SLP118 T00111050

More Conditions Fewer Conditions

10-Day Weather Forecast

Almanac

Astronomy

Jan. 30, 2015 Rise Set
Actual Time
Civil Twilight
Nautical Twilight
Astronomical Twilight
Moon
Length of Visible Light
Length of Day
Tomorrow will be .
, % of the Moon is Illuminated

Today's Extremes

State Highs State Lows

Community

WunderPhotos

Upload Photos

1,791,737 photos uploaded!

WunderBlogs® & News

Nearby

Air Quality

  Air Quality AQ Index Pollutant
Not available.

Snow Depth

Station Depth Elevation

Earthquake Activity

City Distance Mag. Time & Date
Minimum magnitude displayed is 2.5.

Coastal Water Temperatures

Place Temperature

Nearby Weather Stations